createdAt,value
2023-01-25T00:00:25.817Z,16.10
2023-01-25T00:01:59.004Z,15.23
2023-01-25T00:03:32.470Z,45.03
2023-01-25T00:05:06.594Z,28.95
2023-01-25T00:06:40.096Z,13.05
2023-01-25T00:08:14.827Z,14.65
2023-01-25T00:09:48.034Z,19.38
2023-01-25T00:11:21.370Z,12.23
2023-01-25T00:12:54.629Z,11.20
2023-01-25T00:14:28.507Z,11.63
2023-01-25T00:16:05.244Z,11.23
2023-01-25T00:17:38.697Z,14.85
2023-01-25T00:19:13.078Z,12.52
2023-01-25T00:20:46.142Z,17.13
2023-01-25T00:22:19.383Z,13.15
2023-01-25T00:23:54.364Z,12.18
2023-01-25T00:25:27.681Z,16.08
2023-01-25T00:27:00.895Z,13.05
2023-01-25T00:28:34.169Z,15.18
2023-01-25T00:30:08.321Z,18.80
2023-01-25T00:31:55.505Z,14.90
2023-01-25T00:33:41.488Z,20.55
2023-01-25T00:35:15.086Z,18.10
2023-01-25T00:36:50.687Z,15.20
2023-01-25T00:38:30.248Z,14.70
2023-01-25T00:40:05.604Z,17.73
2023-01-25T00:41:38.976Z,13.15
2023-01-25T00:43:12.312Z,16.67
2023-01-25T00:44:45.618Z,16.80
2023-01-25T00:46:19.664Z,14.38
2023-01-25T00:47:56.004Z,12.45
2023-01-25T00:49:31.018Z,15.50
2023-01-25T00:51:04.280Z,15.20
2023-01-25T00:52:37.736Z,15.20
2023-01-25T00:54:10.240Z,14.32
2023-01-25T00:55:52.981Z,15.55
2023-01-25T00:57:26.211Z,12.07
2023-01-25T00:58:58.559Z,15.90
2023-01-25T01:00:32.056Z,11.27
2023-01-25T01:02:04.607Z,12.27
2023-01-25T01:03:37.830Z,13.35
2023-01-25T01:05:11.739Z,13.55
2023-01-25T01:06:44.471Z,12.77
2023-01-25T01:08:17.558Z,12.02
2023-01-25T01:09:51.486Z,14.80
2023-01-25T01:11:25.251Z,13.63
2023-01-25T01:12:58.727Z,15.35
2023-01-25T01:14:31.886Z,15.32
2023-01-25T01:16:08.386Z,15.02
2023-01-25T01:17:41.846Z,15.68
2023-01-25T01:19:14.243Z,15.95
2023-01-25T01:20:50.427Z,16.20
2023-01-25T01:22:23.582Z,14.60
2023-01-25T01:23:56.180Z,16.88
2023-01-25T01:25:29.687Z,14.88
2023-01-25T01:27:04.192Z,13.05
2023-01-25T01:28:39.455Z,15.32
2023-01-25T01:30:13.764Z,12.98
2023-01-25T01:31:51.330Z,15.65
2023-01-25T01:33:33.975Z,16.30
2023-01-25T01:35:09.547Z,10.10
2023-01-25T01:36:43.864Z,15.43
2023-01-25T01:38:17.095Z,12.43
2023-01-25T01:39:50.168Z,12.60
2023-01-25T01:41:23.746Z,15.65
2023-01-25T01:42:58.963Z,14.45
2023-01-25T01:44:46.845Z,13.10
2023-01-25T01:46:26.321Z,12.98
2023-01-25T01:48:00.320Z,11.77
2023-01-25T01:49:34.391Z,15.65
2023-01-25T01:51:25.578Z,10.80
2023-01-25T01:52:58.887Z,12.02
2023-01-25T01:54:36.412Z,12.18
2023-01-25T01:56:17.421Z,14.73
2023-01-25T01:57:58.041Z,13.85
2023-01-25T01:59:39.246Z,13.95
2023-01-25T02:01:11.902Z,11.13
2023-01-25T02:02:45.205Z,12.65
2023-01-25T02:04:21.964Z,13.70
2023-01-25T02:06:00.829Z,13.98
2023-01-25T02:07:36.912Z,11.15
2023-01-25T02:09:10.083Z,12.40
2023-01-25T02:10:43.221Z,10.93
2023-01-25T02:12:17.792Z,15.23
2023-01-25T02:13:51.901Z,14.23
2023-01-25T02:15:34.813Z,13.55
2023-01-25T02:17:08.536Z,16.20
2023-01-25T02:18:41.169Z,17.15
2023-01-25T02:20:24.630Z,13.20
2023-01-25T02:22:00.219Z,11.25
2023-01-25T02:23:41.165Z,17.55
2023-01-25T02:25:18.966Z,13.10
2023-01-25T02:26:52.288Z,13.60
2023-01-25T02:28:28.937Z,10.80
2023-01-25T02:30:01.483Z,12.32
2023-01-25T02:31:35.200Z,12.35
2023-01-25T02:33:08.417Z,11.88
2023-01-25T02:34:42.046Z,13.95
2023-01-25T02:36:22.519Z,17.60
2023-01-25T02:37:55.884Z,16.75
2023-01-25T02:39:29.516Z,18.58
2023-01-25T02:41:11.712Z,18.55
2023-01-25T02:42:48.357Z,17.58
2023-01-25T02:44:26.310Z,17.48
2023-01-25T02:46:03.906Z,16.95
2023-01-25T02:47:37.107Z,15.88
2023-01-25T02:49:11.633Z,17.85
2023-01-25T02:50:45.327Z,21.95
2023-01-25T02:52:18.805Z,20.58
2023-01-25T02:53:52.781Z,17.80
2023-01-25T02:55:25.931Z,22.35
2023-01-25T02:57:00.497Z,14.40
2023-01-25T02:58:39.530Z,12.48
2023-01-25T03:00:13.987Z,14.70
2023-01-25T03:01:47.318Z,18.38
2023-01-25T03:03:20.936Z,15.20
2023-01-25T03:04:54.429Z,10.90
2023-01-25T03:06:27.634Z,15.65
2023-01-25T03:08:01.033Z,16.63
2023-01-25T03:09:34.595Z,12.77
2023-01-25T03:11:08.944Z,17.67
2023-01-25T03:12:44.469Z,14.07
2023-01-25T03:14:17.968Z,16.40
2023-01-25T03:15:50.158Z,17.42
2023-01-25T03:17:25.573Z,15.55
2023-01-25T03:18:58.844Z,13.35
2023-01-25T03:20:32.174Z,14.85
2023-01-25T03:22:06.855Z,15.25
2023-01-25T03:23:40.011Z,20.38
2023-01-25T03:25:14.548Z,16.15
2023-01-25T03:27:14.396Z,12.93
2023-01-25T03:28:56.333Z,17.45
2023-01-25T03:30:29.630Z,13.95
2023-01-25T03:32:02.259Z,14.55
2023-01-25T03:33:36.424Z,14.10
2023-01-25T03:35:09.697Z,13.52
2023-01-25T03:36:43.054Z,12.68
2023-01-25T03:38:16.327Z,15.73
2023-01-25T03:39:50.701Z,14.40
2023-01-25T03:41:25.970Z,21.40
2023-01-25T03:42:59.139Z,15.45
2023-01-25T03:44:33.720Z,22.67
2023-01-25T03:46:07.142Z,17.20
2023-01-25T03:47:41.025Z,15.43
2023-01-25T03:49:15.413Z,13.40
2023-01-25T03:50:52.463Z,11.27
2023-01-25T03:52:40.751Z,13.27
2023-01-25T03:54:22.506Z,17.27
2023-01-25T03:55:56.053Z,18.33
2023-01-25T03:57:29.215Z,17.58
2023-01-25T03:59:12.489Z,15.95
2023-01-25T04:00:47.782Z,14.85
2023-01-25T04:02:21.026Z,18.30
2023-01-25T04:03:53.300Z,17.77
2023-01-25T04:05:26.645Z,15.65
2023-01-25T04:07:00.143Z,14.18
2023-01-25T04:08:33.768Z,12.38
2023-01-25T04:10:10.840Z,13.95
2023-01-25T04:11:50.834Z,19.55
2023-01-25T04:13:26.045Z,16.95
2023-01-25T04:14:59.243Z,15.65
2023-01-25T04:16:36.130Z,22.27
2023-01-25T04:18:35.693Z,17.33
2023-01-25T04:20:10.361Z,17.30
2023-01-25T04:21:46.529Z,17.15
2023-01-25T04:23:19.691Z,18.40
2023-01-25T04:24:53.128Z,16.80
2023-01-25T04:26:26.919Z,22.02
2023-01-25T04:28:06.527Z,23.33
2023-01-25T04:29:41.773Z,19.42
2023-01-25T04:31:20.664Z,17.08
2023-01-25T04:32:56.903Z,21.10
2023-01-25T04:34:35.205Z,14.75
2023-01-25T04:36:09.484Z,63.45
2023-01-25T04:37:43.041Z,35.35
2023-01-25T04:39:16.350Z,31.20
2023-01-25T04:40:48.496Z,24.10
2023-01-25T04:42:21.919Z,20.98
2023-01-25T04:44:00.073Z,31.08
2023-01-25T04:45:35.921Z,18.88
2023-01-25T04:47:12.807Z,23.77
2023-01-25T04:48:47.636Z,16.92
2023-01-25T04:50:22.518Z,17.20
2023-01-25T04:51:54.797Z,24.92
2023-01-25T04:53:28.469Z,22.50
2023-01-25T04:55:06.597Z,22.48
2023-01-25T04:56:45.723Z,21.15
2023-01-25T04:58:19.584Z,27.48
2023-01-25T04:59:52.852Z,26.25
2023-01-25T05:01:28.299Z,25.13
2023-01-25T05:03:01.761Z,21.55
2023-01-25T05:04:36.262Z,21.90
2023-01-25T05:06:10.285Z,29.25
2023-01-25T05:07:42.710Z,23.55
2023-01-25T05:09:17.415Z,21.45
2023-01-25T05:10:51.539Z,27.58
2023-01-25T05:12:44.939Z,25.15
2023-01-25T05:14:18.754Z,27.17
2023-01-25T05:15:52.542Z,18.20
2023-01-25T05:17:25.802Z,21.45
2023-01-25T05:18:59.633Z,20.17
2023-01-25T05:20:47.123Z,17.15
2023-01-25T05:22:21.075Z,28.95
2023-01-25T05:23:57.982Z,27.90
2023-01-25T05:25:48.992Z,22.15
2023-01-25T05:27:27.820Z,20.38
2023-01-25T05:29:00.000Z,17.00
2023-01-25T05:30:42.489Z,28.00
2023-01-25T05:32:27.267Z,20.42
2023-01-25T05:33:59.536Z,29.02
2023-01-25T05:35:33.414Z,27.23
2023-01-25T05:37:08.990Z,14.20
2023-01-25T05:38:46.292Z,22.50
2023-01-25T05:40:20.509Z,31.90
2023-01-25T05:41:55.705Z,26.13
2023-01-25T05:43:29.483Z,20.35
2023-01-25T05:45:03.598Z,20.95
2023-01-25T05:46:36.837Z,23.48
2023-01-25T05:48:10.111Z,22.98
2023-01-25T05:49:43.424Z,27.92
2023-01-25T05:51:21.780Z,28.90
2023-01-25T05:52:56.428Z,48.35
2023-01-25T05:54:30.130Z,35.45
2023-01-25T05:56:10.359Z,44.75
2023-01-25T05:57:44.116Z,39.78
2023-01-25T05:59:18.124Z,27.83
2023-01-25T06:00:51.675Z,24.45
2023-01-25T06:02:39.234Z,28.23
2023-01-25T06:04:15.469Z,30.40
2023-01-25T06:05:48.686Z,30.75
2023-01-25T06:07:22.365Z,35.00
2023-01-25T06:08:58.475Z,28.70
2023-01-25T06:10:32.164Z,23.17
2023-01-25T06:12:06.870Z,29.60
2023-01-25T06:13:40.176Z,28.10
2023-01-25T06:15:13.348Z,25.08
2023-01-25T06:16:47.330Z,21.00
2023-01-25T06:18:52.457Z,20.25
2023-01-25T06:20:39.028Z,23.67
2023-01-25T06:22:12.336Z,22.92
2023-01-25T06:23:45.482Z,41.67
2023-01-25T06:25:20.234Z,23.60
2023-01-25T06:26:53.353Z,27.30
2023-01-25T06:28:26.653Z,37.90
2023-01-25T06:29:59.728Z,23.23
2023-01-25T06:31:33.191Z,22.50
2023-01-25T06:33:05.356Z,27.02
2023-01-25T06:34:38.743Z,33.33
2023-01-25T06:36:17.342Z,37.90
2023-01-25T06:37:50.753Z,25.33
2023-01-25T06:39:24.160Z,17.98
2023-01-25T06:41:02.369Z,19.00
2023-01-25T06:42:35.561Z,20.40
2023-01-25T06:44:09.747Z,21.75
2023-01-25T06:45:42.907Z,14.85
2023-01-25T06:47:17.021Z,17.13
2023-01-25T06:48:50.352Z,12.73
2023-01-25T06:50:23.648Z,13.48
2023-01-25T06:51:56.788Z,16.10
2023-01-25T06:53:31.311Z,10.80
2023-01-25T06:55:04.760Z,10.57
2023-01-25T06:56:39.520Z,14.73
2023-01-25T06:58:12.675Z,16.63
2023-01-25T06:59:46.104Z,14.93
2023-01-25T07:01:21.423Z,14.98
2023-01-25T07:02:54.683Z,18.65
2023-01-25T07:04:27.875Z,14.20
2023-01-25T07:06:02.181Z,12.85
2023-01-25T07:07:35.765Z,17.33
2023-01-25T07:09:10.788Z,11.73
2023-01-25T07:10:43.926Z,12.05
2023-01-25T07:12:19.733Z,11.85
2023-01-25T07:13:52.895Z,12.02
2023-01-25T07:15:26.336Z,10.75
2023-01-25T07:17:02.866Z,9.93
2023-01-25T07:18:38.397Z,9.55
2023-01-25T07:20:12.570Z,8.40
2023-01-25T07:21:46.838Z,8.80
2023-01-25T07:23:20.969Z,10.20
2023-01-25T07:24:54.149Z,13.43
2023-01-25T07:26:27.808Z,7.57
2023-01-25T07:28:02.377Z,11.02
2023-01-25T07:29:35.613Z,8.95
2023-01-25T07:31:09.416Z,9.85
2023-01-25T07:32:42.508Z,6.63
2023-01-25T07:34:15.981Z,19.42
2023-01-25T07:35:51.092Z,8.20
2023-01-25T07:37:23.474Z,31.58
2023-01-25T07:38:57.498Z,11.38
2023-01-25T07:40:30.814Z,22.75
2023-01-25T07:42:03.999Z,11.32
2023-01-25T07:43:40.744Z,14.52
2023-01-25T07:45:16.315Z,9.15
2023-01-25T07:46:49.515Z,16.50
2023-01-25T07:48:22.695Z,14.30
2023-01-25T07:49:56.308Z,16.13
2023-01-25T07:51:31.091Z,18.17
2023-01-25T07:53:04.441Z,13.25
2023-01-25T07:54:37.610Z,10.82
2023-01-25T07:56:13.751Z,11.65
2023-01-25T07:57:47.248Z,14.82
2023-01-25T07:59:21.956Z,10.88
2023-01-25T08:00:55.142Z,17.02
2023-01-25T08:02:28.323Z,24.10
2023-01-25T08:04:02.144Z,11.30
2023-01-25T08:05:35.546Z,17.98
2023-01-25T08:07:08.686Z,11.30
2023-01-25T08:08:44.305Z,16.63
2023-01-25T08:10:17.602Z,12.07
2023-01-25T08:11:50.899Z,16.92
2023-01-25T08:13:24.100Z,22.73
2023-01-25T08:14:58.754Z,23.25
2023-01-25T08:16:32.839Z,10.73
2023-01-25T08:18:06.189Z,16.83
2023-01-25T08:19:39.514Z,9.38
2023-01-25T08:21:13.257Z,8.05
2023-01-25T08:22:46.439Z,16.73
2023-01-25T08:24:20.922Z,13.32
2023-01-25T08:25:54.317Z,9.93
2023-01-25T08:27:28.899Z,8.93
2023-01-25T08:29:01.987Z,6.63
2023-01-25T08:30:36.664Z,9.48
2023-01-25T08:32:12.431Z,9.43
2023-01-25T08:33:46.954Z,9.40
2023-01-25T08:35:20.166Z,10.48
2023-01-25T08:36:53.495Z,13.30
2023-01-25T08:38:26.758Z,6.57
2023-01-25T08:40:00.051Z,4.82
2023-01-25T08:41:34.920Z,8.15
2023-01-25T08:43:08.323Z,7.97
2023-01-25T08:44:41.480Z,5.70
2023-01-25T08:46:17.866Z,6.55
2023-01-25T08:47:51.029Z,8.45
2023-01-25T08:49:24.486Z,12.52
2023-01-25T08:50:57.742Z,8.73
2023-01-25T08:52:31.121Z,9.95
2023-01-25T08:54:05.005Z,9.40
2023-01-25T08:55:38.318Z,6.72
2023-01-25T08:57:11.543Z,7.10
2023-01-25T08:58:46.426Z,6.70
2023-01-25T09:00:21.108Z,9.23
2023-01-25T09:01:55.781Z,12.30
2023-01-25T09:03:29.730Z,16.38
2023-01-25T09:05:03.022Z,9.00
2023-01-25T09:06:36.126Z,8.43
2023-01-25T09:08:11.658Z,7.85
2023-01-25T09:09:44.821Z,12.75
2023-01-25T09:11:19.847Z,13.68
2023-01-25T09:12:52.935Z,11.13
2023-01-25T09:14:26.445Z,19.48
2023-01-25T09:16:03.908Z,10.05
2023-01-25T09:17:39.320Z,9.45
2023-01-25T09:19:12.489Z,9.00
2023-01-25T09:20:46.007Z,5.50
2023-01-25T09:22:19.183Z,8.40
2023-01-25T09:24:09.296Z,6.22
2023-01-25T09:25:42.725Z,7.13
2023-01-25T09:27:16.081Z,7.07
2023-01-25T09:28:50.810Z,6.20
2023-01-25T09:30:33.755Z,8.05
2023-01-25T09:32:11.978Z,7.93
2023-01-25T09:34:02.363Z,7.18
2023-01-25T09:35:35.986Z,6.55
2023-01-25T09:37:09.138Z,6.40
2023-01-25T09:38:42.219Z,10.10
2023-01-25T09:40:21.816Z,12.07
2023-01-25T09:42:45.413Z,9.15
2023-01-25T09:44:37.264Z,6.65
2023-01-25T09:46:20.131Z,7.85
2023-01-25T09:48:00.568Z,15.35
2023-01-25T09:49:51.540Z,16.67
2023-01-25T09:51:31.185Z,16.67
2023-01-25T09:53:17.616Z,10.18
2023-01-25T09:54:51.181Z,7.07
2023-01-25T09:56:26.838Z,8.98
2023-01-25T09:58:02.858Z,15.70
2023-01-25T09:59:36.360Z,18.90
2023-01-25T10:01:38.558Z,12.38
2023-01-25T10:03:21.592Z,13.38
2023-01-25T10:05:03.541Z,15.20
2023-01-25T10:06:46.066Z,19.65
2023-01-25T10:08:30.080Z,8.55
2023-01-25T10:10:07.690Z,5.07
2023-01-25T10:11:42.562Z,4.95
2023-01-25T10:13:18.766Z,4.80
2023-01-25T10:14:52.796Z,4.47
2023-01-25T10:16:32.824Z,8.93
2023-01-25T10:18:20.304Z,6.30
2023-01-25T10:20:09.044Z,4.93
2023-01-25T10:21:45.630Z,5.57
2023-01-25T10:24:04.946Z,4.78
2023-01-25T10:25:45.246Z,13.70
2023-01-25T10:27:29.894Z,9.07
2023-01-25T10:29:09.512Z,7.32
2023-01-25T10:30:50.905Z,9.63
2023-01-25T10:32:32.363Z,5.70
2023-01-25T10:34:18.907Z,6.13
2023-01-25T10:35:53.750Z,7.35
2023-01-25T10:37:29.500Z,11.18
2023-01-25T10:39:07.642Z,7.00
2023-01-25T10:40:44.422Z,6.45
2023-01-25T10:42:18.106Z,10.48
2023-01-25T10:44:11.510Z,15.85
2023-01-25T10:45:44.853Z,13.73
2023-01-25T10:47:24.108Z,21.90
2023-01-25T10:48:57.700Z,5.80
2023-01-25T10:50:46.717Z,4.25
2023-01-25T10:52:23.678Z,6.55
2023-01-25T10:54:02.535Z,4.85
2023-01-25T10:55:35.786Z,4.13
2023-01-25T10:57:10.344Z,3.92
2023-01-25T10:58:46.311Z,8.98
2023-01-25T11:00:30.185Z,12.13
2023-01-25T11:02:36.229Z,12.75
2023-01-25T11:04:31.287Z,9.40
2023-01-25T11:06:08.406Z,3.50
2023-01-25T11:07:43.235Z,10.45
2023-01-25T11:09:32.986Z,6.78
2023-01-25T11:11:25.539Z,9.10
2023-01-25T11:13:26.873Z,8.23
2023-01-25T11:15:26.527Z,11.43
2023-01-25T11:17:02.485Z,26.33
2023-01-25T11:18:36.177Z,29.65
2023-01-25T11:20:19.656Z,10.50
2023-01-25T11:21:53.871Z,6.88
2023-01-25T11:23:28.466Z,13.55
2023-01-25T11:25:26.654Z,7.50
2023-01-25T11:27:19.854Z,7.82
2023-01-25T11:29:08.798Z,8.02
2023-01-25T11:30:42.326Z,7.15
2023-01-25T11:32:21.585Z,4.47
2023-01-25T11:33:54.856Z,13.15
2023-01-25T11:35:34.149Z,8.68
2023-01-25T11:37:33.323Z,8.27
2023-01-25T11:39:27.389Z,7.15
2023-01-25T11:41:10.265Z,6.43
2023-01-25T11:42:58.655Z,8.05
2023-01-25T11:45:12.142Z,9.52
2023-01-25T11:46:56.147Z,7.68
2023-01-25T11:48:50.090Z,9.85
2023-01-25T11:50:31.788Z,11.38
2023-01-25T11:52:16.931Z,5.00
2023-01-25T11:54:10.721Z,4.53
2023-01-25T11:55:53.348Z,5.93
2023-01-25T11:57:43.822Z,2.53
2023-01-25T11:59:31.780Z,5.20
2023-01-25T12:01:14.956Z,7.70
2023-01-25T12:03:24.503Z,5.50
2023-01-25T12:05:27.885Z,5.82
2023-01-25T12:07:04.688Z,8.57
2023-01-25T12:09:01.696Z,7.18
2023-01-25T12:10:44.310Z,5.30
2023-01-25T12:12:31.865Z,6.95
2023-01-25T12:14:13.578Z,6.30
2023-01-25T12:16:16.599Z,6.10
2023-01-25T12:18:09.203Z,7.75
2023-01-25T12:19:59.517Z,5.22
2023-01-25T12:21:49.497Z,6.28
2023-01-25T12:23:35.734Z,7.65
2023-01-25T12:25:22.470Z,5.03
2023-01-25T12:27:01.981Z,8.57
2023-01-25T12:28:43.532Z,6.85
2023-01-25T12:30:23.953Z,4.30
2023-01-25T12:32:08.024Z,5.90
2023-01-25T12:33:47.364Z,7.20
2023-01-25T12:35:30.835Z,8.02
2023-01-25T12:37:13.917Z,15.27
2023-01-25T12:38:53.907Z,10.32
2023-01-25T12:40:41.752Z,5.13
2023-01-25T12:42:21.572Z,7.10
2023-01-25T12:43:59.391Z,9.23
2023-01-25T12:45:37.052Z,9.82
2023-01-25T12:47:17.217Z,8.43
2023-01-25T12:48:54.590Z,9.80
2023-01-25T12:50:33.293Z,15.20
2023-01-25T12:52:16.817Z,15.60
2023-01-25T12:53:51.945Z,10.82
2023-01-25T12:55:25.765Z,17.00
2023-01-25T12:57:09.954Z,30.17
2023-01-25T12:58:48.901Z,17.42
2023-01-25T13:00:28.590Z,7.65
2023-01-25T13:02:14.644Z,5.18
2023-01-25T13:04:10.518Z,11.27
2023-01-25T13:05:49.924Z,8.35
2023-01-25T13:07:34.714Z,10.85
2023-01-25T13:09:17.015Z,11.68
2023-01-25T13:10:54.208Z,10.77
2023-01-25T13:12:28.259Z,11.55
2023-01-25T13:14:28.418Z,9.07
2023-01-25T13:16:37.973Z,11.35
2023-01-25T13:18:41.846Z,11.57
2023-01-25T13:20:44.570Z,8.38
2023-01-25T13:22:59.051Z,7.43
2023-01-25T13:24:33.624Z,7.70
2023-01-25T13:26:48.494Z,11.20
2023-01-25T13:28:43.771Z,7.57
2023-01-25T13:30:32.165Z,9.80
2023-01-25T13:32:11.957Z,10.27
2023-01-25T13:33:45.279Z,14.82
2023-01-25T13:35:36.800Z,6.28
2023-01-25T13:37:19.173Z,7.30
2023-01-25T13:38:52.415Z,14.30
2023-01-25T13:40:32.399Z,8.85
2023-01-25T13:42:20.571Z,7.00
2023-01-25T13:44:14.674Z,8.93
2023-01-25T13:45:51.447Z,6.53
2023-01-25T13:47:29.476Z,7.45
2023-01-25T13:49:10.101Z,5.05
2023-01-25T13:50:48.542Z,7.68
2023-01-25T13:52:24.055Z,8.48
2023-01-25T13:53:59.195Z,14.88
2023-01-25T13:55:40.620Z,14.73
2023-01-25T13:57:15.555Z,10.35
2023-01-25T13:58:48.899Z,5.90
2023-01-25T14:00:23.090Z,9.75
2023-01-25T14:01:57.317Z,13.52
2023-01-25T14:03:36.427Z,12.48
2023-01-25T14:05:20.070Z,15.90
2023-01-25T14:06:59.011Z,14.65
2023-01-25T14:08:33.190Z,7.88
2023-01-25T14:10:11.807Z,13.90
2023-01-25T14:11:47.595Z,13.18
2023-01-25T14:13:21.080Z,14.55
2023-01-25T14:14:54.268Z,12.27
2023-01-25T14:16:30.328Z,10.70
2023-01-25T14:18:14.056Z,7.95
2023-01-25T14:19:50.836Z,13.65
2023-01-25T14:21:24.563Z,9.75
2023-01-25T14:22:57.815Z,9.73
2023-01-25T14:24:30.977Z,15.45
2023-01-25T14:26:04.503Z,13.85
2023-01-25T14:27:42.784Z,11.10
2023-01-25T14:29:35.685Z,8.05
2023-01-25T14:31:22.330Z,9.70
2023-01-25T14:32:58.141Z,9.00
2023-01-25T14:34:31.606Z,9.15
2023-01-25T14:36:22.833Z,12.10
2023-01-25T14:37:57.228Z,14.00
2023-01-25T14:39:31.126Z,14.48
2023-01-25T14:41:14.339Z,35.58
2023-01-25T14:42:47.579Z,31.40
2023-01-25T14:44:21.328Z,23.08
2023-01-25T14:45:54.563Z,10.02
2023-01-25T14:47:32.119Z,22.80
2023-01-25T14:49:25.401Z,21.08
2023-01-25T14:51:07.067Z,17.17
2023-01-25T14:52:42.012Z,14.40
2023-01-25T14:54:19.059Z,15.65
2023-01-25T14:55:52.831Z,13.13
2023-01-25T14:57:37.541Z,16.65
2023-01-25T14:59:26.262Z,12.57
2023-01-25T15:01:01.817Z,18.08
2023-01-25T15:02:40.106Z,14.48
2023-01-25T15:04:14.583Z,18.75
2023-01-25T15:05:48.542Z,13.75
2023-01-25T15:07:37.590Z,18.65
2023-01-25T15:09:36.144Z,21.80
2023-01-25T15:11:45.617Z,21.55
2023-01-25T15:13:24.835Z,30.50
2023-01-25T15:15:00.115Z,18.48
2023-01-25T15:16:36.858Z,19.25
2023-01-25T15:18:47.394Z,27.55
2023-01-25T15:20:39.919Z,24.10
2023-01-25T15:22:13.161Z,27.55
2023-01-25T15:23:49.250Z,28.70
2023-01-25T15:25:24.391Z,44.15
2023-01-25T15:26:57.949Z,41.25
2023-01-25T15:28:34.430Z,35.50
2023-01-25T15:30:12.852Z,27.02
2023-01-25T15:31:45.986Z,32.03
2023-01-25T15:33:22.360Z,43.70
2023-01-25T15:34:56.732Z,31.00
2023-01-25T15:36:30.248Z,27.58
2023-01-25T15:38:03.435Z,23.45
2023-01-25T15:39:39.098Z,28.65
2023-01-25T15:41:12.587Z,17.23
2023-01-25T15:42:45.975Z,24.70
2023-01-25T15:44:20.216Z,16.40
2023-01-25T15:45:56.829Z,22.40
2023-01-25T15:47:29.941Z,34.22
2023-01-25T15:49:06.252Z,26.67
2023-01-25T15:50:39.502Z,25.83
2023-01-25T15:52:12.736Z,31.00
2023-01-25T15:53:46.999Z,26.83
2023-01-25T15:55:21.807Z,24.55
2023-01-25T15:56:58.173Z,14.82
2023-01-25T15:58:34.650Z,20.35
2023-01-25T16:00:16.435Z,11.90
2023-01-25T16:01:49.765Z,25.48
2023-01-25T16:03:22.873Z,25.23
2023-01-25T16:04:56.225Z,21.63
2023-01-25T16:06:37.860Z,22.10
2023-01-25T16:08:17.152Z,31.42
2023-01-25T16:09:50.754Z,30.55
2023-01-25T16:11:25.548Z,32.25
2023-01-25T16:12:58.721Z,28.98
2023-01-25T16:14:32.246Z,22.02
2023-01-25T16:16:09.997Z,27.20
2023-01-25T16:17:43.325Z,18.05
2023-01-25T16:19:18.614Z,18.23
2023-01-25T16:20:52.089Z,15.23
2023-01-25T16:22:25.278Z,55.30
2023-01-25T16:23:58.510Z,31.70
2023-01-25T16:25:31.758Z,29.67
2023-01-25T16:27:06.648Z,19.30
2023-01-25T16:28:39.831Z,21.25
2023-01-25T16:30:22.336Z,15.88
2023-01-25T16:31:57.346Z,20.40
2023-01-25T16:33:30.741Z,32.67
2023-01-25T16:35:03.975Z,22.65
2023-01-25T16:36:39.453Z,23.35
2023-01-25T16:38:13.463Z,21.73
2023-01-25T16:39:46.753Z,16.13
2023-01-25T16:41:19.997Z,18.60
2023-01-25T16:42:54.627Z,18.27
2023-01-25T16:44:28.362Z,19.85
2023-01-25T16:46:01.744Z,17.35
2023-01-25T16:47:34.882Z,15.40
2023-01-25T16:49:10.167Z,24.55
2023-01-25T16:50:43.465Z,23.13
2023-01-25T16:52:16.921Z,20.13
2023-01-25T16:53:52.005Z,27.45
2023-01-25T16:55:25.410Z,25.58
2023-01-25T16:56:59.914Z,21.77
2023-01-25T16:58:37.473Z,26.98
2023-01-25T17:00:13.934Z,28.45
2023-01-25T17:01:47.471Z,29.45
2023-01-25T17:03:20.824Z,22.27
2023-01-25T17:04:54.288Z,22.67
2023-01-25T17:06:29.997Z,23.63
2023-01-25T17:08:03.411Z,21.40
2023-01-25T17:09:36.716Z,20.85
2023-01-25T17:11:10.075Z,15.00
2023-01-25T17:12:43.423Z,21.42
2023-01-25T17:14:20.422Z,19.42
2023-01-25T17:15:57.247Z,17.20
2023-01-25T17:17:31.656Z,17.58
2023-01-25T17:19:06.905Z,20.13
2023-01-25T17:20:40.313Z,20.55
2023-01-25T17:22:14.283Z,20.63
2023-01-25T17:23:48.703Z,20.55
2023-01-25T17:25:22.121Z,16.40
2023-01-25T17:26:57.735Z,16.73
2023-01-25T17:28:31.402Z,21.27
2023-01-25T17:30:07.277Z,16.10
2023-01-25T17:31:42.389Z,23.35
2023-01-25T17:33:16.896Z,24.40
2023-01-25T17:34:50.565Z,31.98
2023-01-25T17:36:24.621Z,27.02
2023-01-25T17:37:57.923Z,22.55
2023-01-25T17:39:31.407Z,29.17
2023-01-25T17:41:05.735Z,22.60
2023-01-25T17:42:39.204Z,20.67
2023-01-25T17:44:12.954Z,25.17
2023-01-25T17:45:47.984Z,21.65
2023-01-25T17:47:21.595Z,21.98
2023-01-25T17:48:55.529Z,15.38
2023-01-25T17:50:29.098Z,21.42
2023-01-25T17:52:03.130Z,20.58
2023-01-25T17:53:36.933Z,22.63
2023-01-25T17:55:10.752Z,23.45
2023-01-25T17:56:44.121Z,24.45
2023-01-25T17:58:17.975Z,26.95
2023-01-25T17:59:52.242Z,24.77
2023-01-25T18:01:29.919Z,25.30
2023-01-25T18:03:03.366Z,21.23
2023-01-25T18:04:37.067Z,24.02
2023-01-25T18:06:11.387Z,35.97
2023-01-25T18:07:45.521Z,16.48
2023-01-25T18:09:18.873Z,23.92
2023-01-25T18:10:52.472Z,31.48
2023-01-25T18:12:26.161Z,28.17
2023-01-25T18:14:01.745Z,29.00
2023-01-25T18:15:35.605Z,20.48
2023-01-25T18:17:10.481Z,16.27
2023-01-25T18:18:45.562Z,25.67
2023-01-25T18:20:20.013Z,16.35
2023-01-25T18:21:53.494Z,16.67
2023-01-25T18:23:27.075Z,21.38
2023-01-25T18:25:01.557Z,20.50
2023-01-25T18:26:38.275Z,21.50
2023-01-25T18:28:15.084Z,23.83
2023-01-25T18:29:55.647Z,24.95
2023-01-25T18:31:29.508Z,21.52
2023-01-25T18:33:06.326Z,23.52
2023-01-25T18:34:39.889Z,23.77
2023-01-25T18:36:15.644Z,24.48
2023-01-25T18:37:49.164Z,23.58
2023-01-25T18:39:22.635Z,31.90
2023-01-25T18:40:56.068Z,20.20
2023-01-25T18:42:29.697Z,34.47
2023-01-25T18:44:03.303Z,16.02
2023-01-25T18:45:36.996Z,22.65
2023-01-25T18:47:13.996Z,23.52
2023-01-25T18:48:48.931Z,20.17
2023-01-25T18:50:23.859Z,22.60
2023-01-25T18:52:10.877Z,23.58
2023-01-25T18:53:47.853Z,26.83
2023-01-25T18:55:21.334Z,20.17
2023-01-25T18:56:55.927Z,15.88
2023-01-25T18:58:31.707Z,21.70
2023-01-25T19:00:06.037Z,16.00
2023-01-25T19:01:39.697Z,12.25
2023-01-25T19:03:13.247Z,21.67
2023-01-25T19:04:49.753Z,21.13
2023-01-25T19:06:23.189Z,17.25
2023-01-25T19:07:56.697Z,18.88
2023-01-25T19:09:30.926Z,22.95
2023-01-25T19:11:07.084Z,18.45
2023-01-25T19:12:43.626Z,21.95
2023-01-25T19:14:17.042Z,23.08
2023-01-25T19:15:50.821Z,23.60
2023-01-25T19:17:24.414Z,36.13
2023-01-25T19:18:57.908Z,26.63
2023-01-25T19:20:32.849Z,23.15
2023-01-25T19:22:07.419Z,28.80
2023-01-25T19:23:42.166Z,36.80
2023-01-25T19:25:16.973Z,36.15
2023-01-25T19:26:50.670Z,46.72
2023-01-25T19:28:25.179Z,23.08
2023-01-25T19:29:58.747Z,23.60
2023-01-25T19:31:33.205Z,21.05
2023-01-25T19:33:06.770Z,25.13
2023-01-25T19:34:41.011Z,22.00
2023-01-25T19:36:18.850Z,27.73
2023-01-25T19:37:52.720Z,17.77
2023-01-25T19:39:26.222Z,22.55
2023-01-25T19:41:05.022Z,28.58
2023-01-25T19:42:38.531Z,24.17
2023-01-25T19:44:13.996Z,26.77
2023-01-25T19:45:47.293Z,25.48
2023-01-25T19:47:20.847Z,25.50
2023-01-25T19:48:55.149Z,22.95
2023-01-25T19:50:30.882Z,29.35
2023-01-25T19:52:05.796Z,27.98
2023-01-25T19:53:39.635Z,27.45
2023-01-25T19:55:13.109Z,23.85
2023-01-25T19:56:48.864Z,29.85
2023-01-25T19:58:27.479Z,23.42
2023-01-25T20:00:00.983Z,26.88
2023-01-25T20:01:37.005Z,25.88
2023-01-25T20:03:16.276Z,23.95
2023-01-25T20:04:51.466Z,25.67
2023-01-25T20:06:25.732Z,30.55
2023-01-25T20:08:00.921Z,32.22
2023-01-25T20:09:34.281Z,25.73
2023-01-25T20:11:09.237Z,27.13
2023-01-25T20:12:42.707Z,26.63
2023-01-25T20:14:16.735Z,29.42
2023-01-25T20:15:50.226Z,30.42
2023-01-25T20:17:23.986Z,22.65
2023-01-25T20:18:58.242Z,26.60
2023-01-25T20:20:31.672Z,41.53
2023-01-25T20:22:05.618Z,32.95
2023-01-25T20:23:43.453Z,36.75
2023-01-25T20:25:16.910Z,33.70
2023-01-25T20:26:51.499Z,33.63
2023-01-25T20:28:25.002Z,34.20
2023-01-25T20:29:58.365Z,23.58
2023-01-25T20:31:34.145Z,22.92
2023-01-25T20:33:07.912Z,25.92
2023-01-25T20:34:41.980Z,20.45
2023-01-25T20:36:15.160Z,26.42
2023-01-25T20:37:49.437Z,21.38
2023-01-25T20:39:24.444Z,28.92
2023-01-25T20:41:00.202Z,28.08
2023-01-25T20:42:33.432Z,21.48
2023-01-25T20:44:08.724Z,22.92
2023-01-25T20:45:42.129Z,23.42
2023-01-25T20:47:15.333Z,21.35
2023-01-25T20:48:49.127Z,22.88
2023-01-25T20:50:22.757Z,25.23
2023-01-25T20:51:56.059Z,14.00
2023-01-25T20:53:29.842Z,30.42
2023-01-25T20:55:05.397Z,33.10
2023-01-25T20:56:39.160Z,19.92
2023-01-25T20:58:12.544Z,19.17
2023-01-25T20:59:45.687Z,25.20